createdAt,value
2022-11-29T00:02:56.269Z,100796.63
2022-11-29T00:06:07.858Z,100789.59
2022-11-29T00:09:12.535Z,100787.69
2022-11-29T00:12:14.150Z,100785.81
2022-11-29T00:15:15.906Z,100778.22
2022-11-29T00:18:17.447Z,100772.78
2022-11-29T00:21:19.044Z,100774.97
2022-11-29T00:24:20.925Z,100779.87
2022-11-29T00:27:22.465Z,100754.97
2022-11-29T00:30:24.179Z,100767.12
2022-11-29T00:33:25.999Z,100758.97
2022-11-29T00:36:28.565Z,100760.62
2022-11-29T00:39:30.238Z,100756.00
2022-11-29T00:42:31.812Z,100760.34
2022-11-29T00:45:33.339Z,100761.22
2022-11-29T00:48:35.506Z,100754.69
2022-11-29T00:51:37.040Z,100749.00
2022-11-29T00:54:38.593Z,100747.97
2022-11-29T00:57:40.119Z,100748.81
2022-11-29T01:00:41.662Z,100743.66
2022-11-29T01:03:43.324Z,100745.56
2022-11-29T01:06:44.846Z,100736.34
2022-11-29T01:09:46.401Z,100739.06
2022-11-29T01:12:48.072Z,100738.50
2022-11-29T01:15:56.313Z,100740.97
2022-11-29T01:18:57.887Z,100740.69
2022-11-29T01:21:59.422Z,100738.78
2022-11-29T01:25:01.002Z,100741.25
2022-11-29T01:28:02.541Z,100737.47
2022-11-29T01:31:12.363Z,100735.84
2022-11-29T01:34:13.928Z,100730.44
2022-11-29T01:37:15.465Z,100730.72
2022-11-29T01:40:17.001Z,100736.97
2022-11-29T01:43:18.646Z,100731.25
2022-11-29T01:46:20.270Z,100696.03
2022-11-29T01:49:27.208Z,100738.56
2022-11-29T01:52:32.244Z,100735.06
2022-11-29T01:55:37.659Z,100730.44
2022-11-29T01:58:39.373Z,100724.72
2022-11-29T02:01:41.027Z,100735.03
2022-11-29T02:04:43.957Z,100742.34
2022-11-29T02:07:48.758Z,100739.09
2022-11-29T02:11:09.706Z,100744.25
2022-11-29T02:14:32.547Z,100740.47
2022-11-29T02:17:43.043Z,100740.47
2022-11-29T02:20:54.232Z,100738.28
2022-11-29T02:24:05.002Z,100737.47
2022-11-29T02:27:23.075Z,100738.53
2022-11-29T02:30:55.850Z,100738.25
2022-11-29T02:34:06.492Z,100738.00
2022-11-29T02:37:38.836Z,100745.56
2022-11-29T02:40:49.585Z,100749.34
2022-11-29T02:44:25.109Z,100748.53
2022-11-29T02:47:48.798Z,100746.88
2022-11-29T02:50:57.703Z,100754.22
2022-11-29T02:54:28.649Z,100749.59
2022-11-29T02:57:32.770Z,100752.31
2022-11-29T03:00:35.976Z,100747.69
2022-11-29T03:03:43.719Z,100750.94
2022-11-29T03:07:16.214Z,100754.78
2022-11-29T03:10:26.164Z,100760.47
2022-11-29T03:13:30.730Z,100758.84
2022-11-29T03:16:57.206Z,100755.87
2022-11-29T03:20:47.036Z,100753.75
2022-11-29T03:23:52.827Z,100761.59
2022-11-29T03:27:17.205Z,100760.22
2022-11-29T03:30:19.316Z,100757.81
2022-11-29T03:33:33.470Z,100761.88
2022-11-29T03:36:45.609Z,100766.47
2022-11-29T03:40:02.936Z,100770.53
2022-11-29T03:43:12.767Z,100764.06
2022-11-29T03:46:48.440Z,100770.84
2022-11-29T03:49:55.850Z,100771.66
2022-11-29T03:53:04.485Z,100767.56
2022-11-29T03:56:29.289Z,100777.03
2022-11-29T03:59:55.124Z,100776.78
2022-11-29T04:03:28.175Z,100780.06
2022-11-29T04:06:29.643Z,100789.56
2022-11-29T04:09:59.414Z,100781.69
2022-11-29T04:13:08.410Z,100786.56
2022-11-29T04:16:09.932Z,100783.84
2022-11-29T04:19:49.127Z,100787.09
2022-11-29T04:23:08.902Z,100786.84
2022-11-29T04:26:47.107Z,100794.19
2022-11-29T04:30:01.734Z,100791.47
2022-11-29T04:33:27.765Z,100790.38
2022-11-29T04:36:42.426Z,100794.72
2022-11-29T04:40:05.685Z,100791.19
2022-11-29T04:43:22.396Z,100795.50
2022-11-29T04:46:23.903Z,100794.69
2022-11-29T04:50:04.088Z,100794.97
2022-11-29T04:53:11.773Z,100795.22
2022-11-29T04:56:47.458Z,100792.81
2022-11-29T05:00:01.927Z,100795.22
2022-11-29T05:03:33.046Z,100807.72
2022-11-29T05:06:43.166Z,100817.75
2022-11-29T05:10:06.297Z,100817.75
2022-11-29T05:13:46.817Z,100812.03
2022-11-29T05:16:54.830Z,100808.00
2022-11-29T05:20:27.530Z,100817.19
2022-11-29T05:24:07.555Z,100823.72
2022-11-29T05:27:42.978Z,100821.00
2022-11-29T05:30:50.637Z,100826.44
2022-11-29T05:34:06.059Z,100822.63
2022-11-29T05:37:22.107Z,100822.63
2022-11-29T05:40:51.214Z,100819.38
2022-11-29T05:43:59.531Z,100825.06
2022-11-29T05:47:03.345Z,100823.16
2022-11-29T05:50:10.954Z,100819.38
2022-11-29T05:53:44.270Z,100820.75
2022-11-29T05:57:14.662Z,100822.09
2022-11-29T06:00:17.575Z,100826.69
2022-11-29T06:03:33.670Z,100822.09
2022-11-29T06:07:15.060Z,100838.62
2022-11-29T06:10:18.316Z,100841.88
2022-11-29T06:13:44.858Z,100846.50
2022-11-29T06:17:18.719Z,100848.94
2022-11-29T06:20:41.352Z,100836.19
2022-11-29T06:24:01.247Z,100844.03
2022-11-29T06:27:36.435Z,100850.56
2022-11-29T06:31:03.483Z,100847.03
2022-11-29T06:34:14.074Z,100841.88
2022-11-29T06:37:21.638Z,100850.56
2022-11-29T06:40:23.474Z,100845.66
2022-11-29T06:43:28.356Z,100853.81
2022-11-29T06:46:53.216Z,100858.44
2022-11-29T06:50:01.318Z,100860.56
2022-11-29T06:53:34.892Z,100865.19
2022-11-29T06:56:42.848Z,100863.00
2022-11-29T07:00:03.805Z,100864.91
2022-11-29T07:03:26.538Z,100871.16
2022-11-29T07:06:29.205Z,100860.31
2022-11-29T07:09:34.274Z,100861.91
2022-11-29T07:12:36.102Z,100867.63
2022-11-29T07:15:38.226Z,100864.91
2022-11-29T07:19:21.979Z,100868.41
2022-11-29T07:22:26.640Z,100869.53
2022-11-29T07:25:56.869Z,100871.94
2022-11-29T07:29:28.329Z,100871.94
2022-11-29T07:32:40.089Z,100875.19
2022-11-29T07:36:09.857Z,100876.25
2022-11-29T07:39:20.438Z,100881.37
2022-11-29T07:42:54.058Z,100874.00
2022-11-29T07:45:57.054Z,100878.88
2022-11-29T07:48:58.568Z,100865.34
2022-11-29T07:52:00.129Z,100876.72
2022-11-29T07:55:02.367Z,100888.66
2022-11-29T07:58:03.894Z,100870.28
2022-11-29T08:01:05.529Z,100876.44
2022-11-29T08:04:08.284Z,100885.38
2022-11-29T08:07:10.104Z,100880.78
2022-11-29T08:10:14.721Z,100851.22
2022-11-29T08:13:19.307Z,100884.59
2022-11-29T08:16:20.868Z,100880.50
2022-11-29T08:19:22.438Z,100888.66
2022-11-29T08:22:23.960Z,100880.47
2022-11-29T08:25:26.921Z,100881.75
2022-11-29T08:28:28.775Z,100874.06
2022-11-29T08:31:30.360Z,100855.94
2022-11-29T08:34:31.924Z,100875.94
2022-11-29T08:37:33.436Z,100879.28
2022-11-29T08:40:34.967Z,100874.41
2022-11-29T08:43:36.510Z,100878.19
2022-11-29T08:46:56.333Z,100873.84
2022-11-29T08:50:03.642Z,100877.06
2022-11-29T08:53:23.710Z,100876.84
2022-11-29T08:57:16.426Z,100885.34
2022-11-29T08:59:46.750Z,100881.28
2022-11-29T09:02:48.836Z,100883.16
2022-11-29T09:05:50.536Z,100883.09
2022-11-29T09:08:52.100Z,100881.16
2022-11-29T09:11:53.642Z,100880.31
2022-11-29T09:14:55.167Z,100879.78
2022-11-29T09:17:57.086Z,100881.63
2022-11-29T09:20:59.377Z,100874.50
2022-11-29T09:24:02.024Z,100879.12
2022-11-29T09:27:03.843Z,100877.84
2022-11-29T09:30:05.992Z,100865.38
2022-11-29T09:33:07.540Z,100872.16
2022-11-29T09:36:10.692Z,100864.69
2022-11-29T09:39:14.979Z,100873.69
2022-11-29T09:42:47.776Z,100881.03
2022-11-29T09:45:54.992Z,100869.38
2022-11-29T09:49:26.417Z,100872.69
2022-11-29T09:53:05.824Z,100867.44
2022-11-29T09:56:44.057Z,100861.53
2022-11-29T09:59:48.295Z,100843.94
2022-11-29T10:03:03.767Z,100865.25
2022-11-29T10:06:24.273Z,100859.03
2022-11-29T10:09:33.708Z,100861.34
2022-11-29T10:12:49.986Z,100841.69
2022-11-29T10:15:58.548Z,100839.34
2022-11-29T10:19:17.406Z,100847.44
2022-11-29T10:22:28.030Z,100829.19
2022-11-29T10:25:38.024Z,100837.88
2022-11-29T10:28:44.986Z,100837.50
2022-11-29T10:31:49.417Z,100831.50
2022-11-29T10:34:51.470Z,100839.28
2022-11-29T10:38:29.241Z,100834.91
2022-11-29T10:41:21.578Z,100835.75
2022-11-29T10:44:24.471Z,100834.19
2022-11-29T10:47:26.271Z,100826.59
2022-11-29T10:50:29.800Z,100813.69
2022-11-29T10:53:36.016Z,100820.31
2022-11-29T10:56:39.392Z,100815.53
2022-11-29T10:59:41.038Z,100806.09
2022-11-29T11:02:42.578Z,100808.50
2022-11-29T11:05:59.583Z,100780.50
2022-11-29T11:09:20.373Z,100807.84
2022-11-29T11:12:30.269Z,100804.97
2022-11-29T11:15:32.523Z,100813.47
2022-11-29T11:18:34.293Z,100793.66
2022-11-29T11:21:38.380Z,100813.69
2022-11-29T11:24:41.548Z,100810.91
2022-11-29T11:27:43.151Z,100807.44
2022-11-29T11:30:50.945Z,100811.78
2022-11-29T11:33:52.706Z,100812.31
2022-11-29T11:37:11.462Z,100808.75
2022-11-29T11:40:28.959Z,100813.84
2022-11-29T11:43:31.822Z,100811.78
2022-11-29T11:46:53.677Z,100811.56
2022-11-29T11:50:04.081Z,100804.97
2022-11-29T11:53:08.348Z,100808.38
2022-11-29T11:56:12.843Z,100813.97
2022-11-29T11:59:20.157Z,100802.94
2022-11-29T12:02:26.652Z,100806.75
2022-11-29T12:05:28.325Z,100805.28
2022-11-29T12:08:30.687Z,100807.56
2022-11-29T12:11:39.690Z,100806.09
2022-11-29T12:14:59.639Z,100814.16
2022-11-29T12:18:12.895Z,100798.44
2022-11-29T12:21:22.705Z,100804.56
2022-11-29T12:24:38.355Z,100813.03
2022-11-29T12:27:39.891Z,100802.06
2022-11-29T12:31:07.690Z,100795.50
2022-11-29T12:35:03.639Z,100802.44
2022-11-29T12:38:07.900Z,100796.87
2022-11-29T12:41:52.480Z,100792.75
2022-11-29T12:45:20.245Z,100795.94
2022-11-29T12:49:06.473Z,100792.75
2022-11-29T12:52:24.455Z,100789.13
2022-11-29T12:55:37.547Z,100790.25
2022-11-29T12:58:44.229Z,100787.72
2022-11-29T13:02:22.007Z,100793.81
2022-11-29T13:05:42.430Z,100788.94
2022-11-29T13:09:02.681Z,100783.78
2022-11-29T13:12:13.442Z,100792.47
2022-11-29T13:15:17.158Z,100791.41
2022-11-29T13:18:26.166Z,100753.97
2022-11-29T13:22:09.195Z,100783.28
2022-11-29T13:25:20.242Z,100788.59
2022-11-29T13:28:28.639Z,100787.25
2022-11-29T13:31:30.830Z,100791.97
2022-11-29T13:34:39.583Z,100791.88
2022-11-29T13:37:49.407Z,100791.75
2022-11-29T13:40:59.592Z,100758.22
2022-11-29T13:44:43.465Z,100789.13
2022-11-29T13:47:52.611Z,100792.03
2022-11-29T13:50:55.383Z,100791.28
2022-11-29T13:54:00.212Z,100792.59
2022-11-29T13:57:03.248Z,100796.00
2022-11-29T14:00:05.829Z,100790.84
2022-11-29T14:03:28.563Z,100796.00
2022-11-29T14:06:35.626Z,100791.31
2022-11-29T14:10:04.176Z,100796.00
2022-11-29T14:13:12.083Z,100797.13
2022-11-29T14:16:21.374Z,100799.84
2022-11-29T14:19:22.966Z,100799.84
2022-11-29T14:22:24.507Z,100796.87
2022-11-29T14:25:50.709Z,100795.91
2022-11-29T14:28:47.759Z,100800.66
2022-11-29T14:31:50.897Z,100787.44
2022-11-29T14:35:10.813Z,100795.47
2022-11-29T14:38:29.270Z,100792.00
2022-11-29T14:41:47.452Z,100795.09
2022-11-29T14:44:54.130Z,100801.72
2022-11-29T14:47:56.333Z,100800.72
2022-11-29T14:51:09.828Z,100800.03
2022-11-29T14:54:12.220Z,100798.69
2022-11-29T14:57:44.839Z,100792.78
2022-11-29T15:00:49.396Z,100791.22
2022-11-29T15:03:51.216Z,100795.94
2022-11-29T15:06:55.830Z,100795.97
2022-11-29T15:10:04.344Z,100791.44
2022-11-29T15:13:08.671Z,100802.31
2022-11-29T15:16:28.551Z,100799.06
2022-11-29T15:19:57.994Z,100803.22
2022-11-29T15:23:01.907Z,100801.88
2022-11-29T15:26:03.610Z,100794.88
2022-11-29T15:29:19.780Z,100756.97
2022-11-29T15:32:32.605Z,100790.72
2022-11-29T15:35:35.982Z,100792.66
2022-11-29T15:38:52.867Z,100795.12
2022-11-29T15:42:00.501Z,100791.66
2022-11-29T15:45:02.044Z,100794.66
2022-11-29T15:48:30.660Z,100797.09
2022-11-29T15:51:35.513Z,100788.41
2022-11-29T15:54:44.068Z,100798.19
2022-11-29T15:57:48.703Z,100797.44
2022-11-29T16:00:50.849Z,100795.28
2022-11-29T16:03:54.583Z,100793.06
2022-11-29T16:06:56.855Z,100801.50
2022-11-29T16:10:05.239Z,100800.38
2022-11-29T16:13:26.196Z,100800.66
2022-11-29T16:16:28.809Z,100806.87
2022-11-29T16:19:37.987Z,100771.41
2022-11-29T16:22:39.668Z,100801.09
2022-11-29T16:26:16.568Z,100800.00
2022-11-29T16:29:30.777Z,100801.62
2022-11-29T16:32:37.563Z,100799.19
2022-11-29T16:35:39.115Z,100799.94
2022-11-29T16:38:49.571Z,100798.56
2022-11-29T16:42:08.373Z,100797.78
2022-11-29T16:45:38.419Z,100808.41
2022-11-29T16:48:43.479Z,100810.41
2022-11-29T16:51:48.205Z,100814.62
2022-11-29T16:54:51.431Z,100827.88
2022-11-29T16:57:52.950Z,100824.84
2022-11-29T17:00:54.541Z,100827.53
2022-11-29T17:03:57.844Z,100815.47
2022-11-29T17:06:59.537Z,100836.41
2022-11-29T17:10:01.161Z,100844.50
2022-11-29T17:13:04.439Z,100834.94
2022-11-29T17:16:12.680Z,100839.84
2022-11-29T17:19:14.265Z,100852.06
2022-11-29T17:22:15.778Z,100850.94
2022-11-29T17:25:17.307Z,100855.00
2022-11-29T17:28:18.874Z,100851.69
2022-11-29T17:31:22.737Z,100858.78
2022-11-29T17:34:24.418Z,100852.25
2022-11-29T17:37:25.961Z,100847.88
2022-11-29T17:40:27.503Z,100849.53
2022-11-29T17:43:29.027Z,100850.31
2022-11-29T17:46:32.751Z,100855.75
2022-11-29T17:49:34.305Z,100847.59
2022-11-29T17:52:35.859Z,100846.81
2022-11-29T17:55:37.371Z,100859.00
2022-11-29T17:58:39.663Z,100854.66
2022-11-29T18:01:41.248Z,100850.56
2022-11-29T18:04:43.937Z,100851.91
2022-11-29T18:08:00.795Z,100850.28
2022-11-29T18:11:23.540Z,100842.62
2022-11-29T18:14:28.297Z,100842.31
2022-11-29T18:17:29.978Z,100837.19
2022-11-29T18:20:31.494Z,100837.47
2022-11-29T18:23:34.386Z,100834.75
2022-11-29T18:26:37.544Z,100839.69
2022-11-29T18:29:39.472Z,100841.00
2022-11-29T18:32:41.135Z,100849.19
2022-11-29T18:35:42.683Z,100850.56
2022-11-29T18:38:45.308Z,100863.06
2022-11-29T18:41:48.171Z,100861.47
2022-11-29T18:44:50.984Z,100855.50
2022-11-29T18:47:54.143Z,100860.94
2022-11-29T18:50:55.713Z,100850.50
2022-11-29T18:53:58.238Z,100857.09
2022-11-29T18:56:59.839Z,100858.25
2022-11-29T19:00:03.851Z,100864.56
2022-11-29T19:03:05.371Z,100862.16
2022-11-29T19:06:09.753Z,100856.00
2022-11-29T19:09:20.921Z,100854.97
2022-11-29T19:12:22.600Z,100854.44
2022-11-29T19:15:24.124Z,100836.59
2022-11-29T19:18:25.669Z,100860.97
2022-11-29T19:21:29.528Z,100863.69
2022-11-29T19:24:31.115Z,100848.84
2022-11-29T19:27:32.659Z,100864.50
2022-11-29T19:30:34.580Z,100868.59
2022-11-29T19:33:37.659Z,100859.38
2022-11-29T19:36:43.957Z,100864.81
2022-11-29T19:39:46.345Z,100866.66
2022-11-29T19:42:51.179Z,100863.94
2022-11-29T19:45:52.799Z,100865.62
2022-11-29T19:48:55.951Z,100878.41
2022-11-29T19:51:57.481Z,100832.34
2022-11-29T19:54:59.704Z,100869.75
2022-11-29T19:58:01.230Z,100865.41
2022-11-29T20:01:25.037Z,100872.78
2022-11-29T20:04:26.691Z,100854.56
2022-11-29T20:07:28.312Z,100864.13
2022-11-29T20:10:29.867Z,100867.16
2022-11-29T20:13:31.456Z,100859.03
2022-11-29T20:16:33.518Z,100848.47
2022-11-29T20:19:35.055Z,100856.94
2022-11-29T20:22:37.187Z,100855.88
2022-11-29T20:25:38.752Z,100853.47
2022-11-29T20:28:40.518Z,100851.88
2022-11-29T20:31:49.651Z,100852.44
2022-11-29T20:34:52.382Z,100849.72
2022-11-29T20:38:06.824Z,100855.97
2022-11-29T20:41:14.131Z,100853.78
2022-11-29T20:44:30.174Z,100849.69
2022-11-29T20:47:36.345Z,100813.41
2022-11-29T20:50:38.215Z,100856.19
2022-11-29T20:53:41.657Z,100854.53
2022-11-29T20:56:43.174Z,100840.69
2022-11-29T20:59:45.004Z,100848.31
2022-11-29T21:02:46.700Z,100845.31
2022-11-29T21:05:48.446Z,100840.94
2022-11-29T21:08:51.142Z,100842.06
2022-11-29T21:11:52.940Z,100849.41
2022-11-29T21:14:54.762Z,100847.50
2022-11-29T21:17:56.631Z,100853.22
2022-11-29T21:21:04.059Z,100848.88
2022-11-29T21:24:21.019Z,100851.28
2022-11-29T21:27:28.303Z,100856.47
2022-11-29T21:30:29.982Z,100846.38
2022-11-29T21:33:31.765Z,100853.47
2022-11-29T21:36:33.307Z,100851.28
2022-11-29T21:39:35.120Z,100848.25
2022-11-29T21:42:37.093Z,100864.31
2022-11-29T21:45:38.621Z,100848.00
2022-11-29T21:48:42.274Z,100856.94
2022-11-29T21:51:43.831Z,100856.69
2022-11-29T21:54:45.535Z,100840.41
2022-11-29T21:57:47.209Z,100862.66
2022-11-29T22:00:48.752Z,100860.75
2022-11-29T22:03:53.413Z,100859.94
2022-11-29T22:06:54.929Z,100855.56
2022-11-29T22:09:56.446Z,100857.22
2022-11-29T22:12:58.988Z,100852.84
2022-11-29T22:16:08.658Z,100853.97
2022-11-29T22:19:14.417Z,100850.19
2022-11-29T22:22:16.091Z,100853.16
2022-11-29T22:25:17.698Z,100849.66
2022-11-29T22:28:19.268Z,100837.97
2022-11-29T22:31:20.863Z,100845.84
2022-11-29T22:34:25.106Z,100844.75
2022-11-29T22:37:27.538Z,100847.19
2022-11-29T22:40:29.067Z,100837.91
2022-11-29T22:43:31.406Z,100842.78
2022-11-29T22:46:35.353Z,100823.53
2022-11-29T22:49:36.992Z,100841.38
2022-11-29T22:52:38.517Z,100842.19
2022-11-29T22:55:40.043Z,100837.00
2022-11-29T22:58:41.578Z,100831.25
2022-11-29T23:01:43.523Z,100830.44
2022-11-29T23:04:45.416Z,100823.91
2022-11-29T23:07:47.363Z,100831.78
2022-11-29T23:10:56.982Z,100825.00
2022-11-29T23:13:58.541Z,100828.84
2022-11-29T23:17:00.070Z,100832.94
2022-11-29T23:20:01.570Z,100831.59
2022-11-29T23:23:03.103Z,100832.41
2022-11-29T23:26:06.049Z,100824.25
2022-11-29T23:29:10.067Z,100828.88
2022-11-29T23:32:11.627Z,100829.69
2022-11-29T23:35:13.267Z,100828.31
2022-11-29T23:38:15.262Z,100822.06
2022-11-29T23:41:16.824Z,100820.69
2022-11-29T23:44:18.335Z,100823.41
2022-11-29T23:47:19.850Z,100822.28
2022-11-29T23:50:21.386Z,100823.63
2022-11-29T23:53:22.942Z,100818.47
2022-11-29T23:56:24.502Z,100806.59
2022-11-29T23:59:26.034Z,100822.00
